Terminal Aerodrome Forecast
Issued by NWS

Home | Current Version | Previous Version | Text Only | Print | Product List | Glossary Off
Versions: 1 2 3 4 5 6 7 8 9 10 11 12 13 14 15 16

000
FTUS43 KICT 201100
TAFRSL
TAF
KRSL 201120Z 2012/2112 19014G22KT P6SM SCT200
     FM201600 19021G30KT P6SM FEW090 SCT250
     FM210200 18018G24KT P6SM SCT150=

USA.gov is the U.S. government's official web portal to all federal, state and local government web resources and services.